Time;durP1;ratioP1;P1;durP2;ratioP2;P2;SDS_P1;SDS_P2;PMS_P1;PMS_P2;Temp;Humidity;BMP_temperature;BMP_pressure;BME280_temperature;BME280_humidity;BME280_pressure;Samples;Min_cycle;Max_cycle;Signal;HPM_P1;HPM_P2
2021/06/20 00:01:17;;;;;;;9.20;4.10;;;29.70;51.00;;;;;;2589147;52;21878;-66
2021/06/20 00:03:44;;;;;;;9.38;4.22;;;29.70;50.90;;;;;;2587500;52;21010;-63
2021/06/20 00:06:47;;;;;;;10.20;4.82;;;29.70;50.80;;;;;;2347489;53;20990;-65
2021/06/20 00:09:17;;;;;;;12.68;4.60;;;29.70;50.40;;;;;;2590366;52;21078;-65
2021/06/20 00:11:46;;;;;;;11.90;3.67;;;29.60;50.20;;;;;;2347196;53;20910;-63
2021/06/20 00:14:12;;;;;;;15.23;4.05;;;29.60;50.00;;;;;;2347253;53;21761;-66
2021/06/20 00:16:39;;;;;;;18.02;4.65;;;29.60;49.90;;;;;;2346711;53;21918;-64
2021/06/20 00:19:06;;;;;;;8.55;4.35;;;29.70;49.80;;;;;;2346661;53;21801;-64
2021/06/20 00:21:32;;;;;;;13.10;4.15;;;29.70;49.60;;;;;;2558516;52;20943;-66
2021/06/20 00:23:58;;;;;;;15.95;4.93;;;29.70;49.40;;;;;;2353472;53;20995;-64
2021/06/20 00:26:25;;;;;;;14.20;4.50;;;29.70;49.30;;;;;;2349555;53;20946;-64
2021/06/20 00:28:51;;;;;;;13.25;4.22;;;29.80;49.10;;;;;;2350650;53;20906;-66
2021/06/20 00:31:18;;;;;;;20.77;4.32;;;29.80;49.10;;;;;;2349693;53;20967;-67
2021/06/20 00:33:46;;;;;;;13.18;4.28;;;29.80;49.00;;;;;;2343895;53;20932;-66
2021/06/20 00:36:12;;;;;;;18.55;4.82;;;29.80;48.90;;;;;;2352254;53;20923;-66
2021/06/20 00:38:38;;;;;;;15.35;4.82;;;29.80;48.70;;;;;;2345680;53;21030;-64
2021/06/20 00:41:04;;;;;;;17.37;4.68;;;29.80;48.60;;;;;;2346177;53;21230;-66
2021/06/20 00:43:31;;;;;;;12.80;4.70;;;29.80;48.60;;;;;;2587321;52;20922;-64
2021/06/20 00:45:59;;;;;;;12.10;3.97;;;29.80;48.60;;;;;;2345842;53;20930;-64
2021/06/20 00:48:28;;;;;;;8.77;3.97;;;29.80;48.50;;;;;;2328865;53;21050;-64
2021/06/20 00:50:54;;;;;;;13.38;4.12;;;29.80;48.50;;;;;;2521017;52;21823;-65
2021/06/20 00:53:20;;;;;;;11.50;3.72;;;29.80;48.50;;;;;;2346878;53;21034;-64
2021/06/20 00:55:50;;;;;;;13.70;4.20;;;29.80;48.50;;;;;;2349625;53;20978;-64
2021/06/20 00:58:18;;;;;;;15.90;4.90;;;29.80;48.50;;;;;;2349684;53;20993;-64
2021/06/20 01:00:44;;;;;;;14.93;4.15;;;29.80;48.50;;;;;;2586552;52;21033;-64
2021/06/20 01:03:10;;;;;;;11.55;3.35;;;29.70;48.50;;;;;;2346634;53;20922;-64
2021/06/20 01:05:37;;;;;;;12.37;4.05;;;29.70;48.50;;;;;;2349830;53;20998;-66
2021/06/20 01:08:03;;;;;;;14.15;3.70;;;29.70;48.60;;;;;;2346108;53;21012;-64
2021/06/20 01:10:35;;;;;;;15.45;3.92;;;29.70;48.60;;;;;;2348023;53;20916;-64
2021/06/20 01:13:03;;;;;;;12.10;4.07;;;29.60;48.60;;;;;;2406651;52;20998;-64
2021/06/20 01:15:29;;;;;;;10.07;3.10;;;29.60;48.60;;;;;;2348239;53;20990;-64
2021/06/20 01:17:56;;;;;;;10.18;3.05;;;29.60;48.70;;;;;;2343520;53;21777;-66
2021/06/20 01:20:22;;;;;;;11.80;3.35;;;29.60;48.80;;;;;;2345416;53;20908;-64
2021/06/20 01:22:49;;;;;;;11.00;3.25;;;29.50;48.80;;;;;;2350124;53;20966;-66
2021/06/20 01:25:18;;;;;;;9.60;3.17;;;29.50;48.80;;;;;;2351297;53;20987;-64
2021/06/20 01:27:56;;;;;;;10.77;2.87;;;29.50;48.90;;;;;;2345734;53;21684;-64
2021/06/20 01:30:27;;;;;;;10.23;3.58;;;29.50;49.10;;;;;;2347232;53;20998;-64
2021/06/20 01:32:54;;;;;;;9.85;3.67;;;29.40;49.00;;;;;;2349904;53;20918;-64
2021/06/20 01:35:20;;;;;;;9.13;3.10;;;29.40;49.10;;;;;;2347170;53;21013;-64
2021/06/20 01:37:47;;;;;;;11.38;3.75;;;29.30;49.20;;;;;;2562524;52;20982;-64
2021/06/20 01:40:15;;;;;;;11.40;3.22;;;29.30;49.30;;;;;;2349218;53;20910;-64
2021/06/20 01:42:41;;;;;;;10.82;3.35;;;29.20;49.40;;;;;;2346843;53;20954;-64
2021/06/20 01:45:09;;;;;;;7.50;2.95;;;29.20;49.50;;;;;;2504411;52;20981;-65
2021/06/20 01:47:35;;;;;;;7.90;2.75;;;29.10;49.60;;;;;;2402798;52;20937;-64
2021/06/20 01:50:06;;;;;;;11.55;2.75;;;29.10;49.70;;;;;;2345897;53;21057;-64
2021/06/20 01:52:32;;;;;;;7.03;2.78;;;29.00;50.00;;;;;;2330008;53;20986;-67
2021/06/20 01:54:58;;;;;;;7.37;2.17;;;29.00;50.10;;;;;;2587642;52;21010;-65
2021/06/20 01:57:28;;;;;;;11.30;3.15;;;28.90;50.10;;;;;;2348404;53;20935;-64
2021/06/20 01:59:56;;;;;;;9.85;3.72;;;28.90;50.40;;;;;;2588556;52;20898;-64
2021/06/20 02:02:23;;;;;;;8.73;3.17;;;28.80;50.30;;;;;;2351532;53;20950;-64
2021/06/20 02:04:50;;;;;;;7.97;2.72;;;28.70;50.30;;;;;;2343404;53;21013;-64
2021/06/20 02:07:19;;;;;;;9.90;2.78;;;28.70;50.40;;;;;;2346709;53;21033;-65
2021/06/20 02:09:54;;;;;;;10.75;3.00;;;28.70;50.50;;;;;;2349499;53;20950;-64
2021/06/20 02:12:22;;;;;;;6.87;3.10;;;28.60;50.70;;;;;;2349160;53;21787;-64
2021/06/20 02:14:48;;;;;;;9.60;2.50;;;28.60;50.40;;;;;;2350308;53;20938;-66
2021/06/20 02:17:24;;;;;;;7.18;2.70;;;28.50;51.00;;;;;;2353919;53;20921;-64
2021/06/20 02:20:04;;;;;;;8.70;2.83;;;28.50;50.60;;;;;;2350346;53;21008;-63
2021/06/20 02:22:31;;;;;;;6.70;1.90;;;28.40;50.30;;;;;;2331717;53;21006;-64
2021/06/20 02:24:57;;;;;;;4.37;1.42;;;28.40;50.20;;;;;;2586805;52;21069;-64
2021/06/20 02:27:23;;;;;;;6.85;1.85;;;28.30;50.10;;;;;;2349337;53;20926;-63
2021/06/20 02:29:51;;;;;;;7.30;2.12;;;28.30;50.10;;;;;;2346518;53;20930;-64
2021/06/20 02:32:17;;;;;;;5.80;1.62;;;28.30;50.10;;;;;;2345572;53;20958;-65
2021/06/20 02:34:43;;;;;;;5.32;1.73;;;28.20;49.90;;;;;;2587363;52;20923;-64
2021/06/20 02:37:10;;;;;;;3.70;1.48;;;28.20;49.90;;;;;;2346223;53;20941;-64
2021/06/20 02:39:37;;;;;;;7.25;1.80;;;28.10;49.90;;;;;;2348104;53;20938;-64
2021/06/20 02:42:06;;;;;;;4.47;1.62;;;28.10;50.00;;;;;;2587088;52;20918;-64
2021/06/20 02:44:32;;;;;;;4.55;1.40;;;28.00;49.90;;;;;;2578629;52;21041;-64
2021/06/20 02:46:59;;;;;;;4.97;1.60;;;28.00;49.90;;;;;;2347249;53;20974;-64
2021/06/20 02:49:26;;;;;;;5.93;1.35;;;28.00;49.90;;;;;;2349205;53;20990;-66
2021/06/20 02:51:52;;;;;;;4.35;1.37;;;27.90;49.80;;;;;;2353581;53;21019;-64
2021/06/20 02:54:18;;;;;;;5.97;1.30;;;27.90;49.80;;;;;;2346304;53;20942;-64
2021/06/20 02:56:45;;;;;;;7.70;1.33;;;27.80;49.70;;;;;;2349581;53;20941;-65
2021/06/20 02:59:12;;;;;;;7.78;1.55;;;27.80;49.60;;;;;;2352724;53;21008;-66
2021/06/20 03:01:38;;;;;;;6.87;1.85;;;27.80;49.60;;;;;;2588332;52;21022;-64
2021/06/20 03:04:04;;;;;;;3.50;1.10;;;27.70;49.50;;;;;;2349728;53;20978;-64
2021/06/20 03:06:30;;;;;;;4.28;1.12;;;27.70;49.40;;;;;;2347244;53;20946;-65
2021/06/20 03:08:57;;;;;;;5.12;1.45;;;27.60;49.30;;;;;;2346553;53;21522;-64
2021/06/20 03:11:23;;;;;;;7.03;1.40;;;27.60;49.30;;;;;;2436723;52;21426;-64
2021/06/20 03:13:49;;;;;;;4.22;1.02;;;27.60;49.30;;;;;;2349327;53;21010;-66
2021/06/20 03:16:17;;;;;;;3.90;1.17;;;27.50;49.20;;;;;;2346821;53;21021;-64
2021/06/20 03:18:43;;;;;;;3.97;1.20;;;27.50;49.20;;;;;;2540392;52;21442;-65
2021/06/20 03:21:09;;;;;;;6.45;1.40;;;27.50;49.20;;;;;;2348721;53;21553;-65
2021/06/20 03:23:37;;;;;;;4.05;1.30;;;27.50;49.30;;;;;;2588461;52;21427;-64
2021/06/20 03:26:03;;;;;;;3.37;1.30;;;27.40;49.30;;;;;;2346146;53;20998;-63
2021/06/20 03:28:30;;;;;;;4.50;1.30;;;27.40;49.30;;;;;;2350619;53;20942;-63
2021/06/20 03:30:56;;;;;;;3.05;0.93;;;27.40;49.30;;;;;;2346465;53;21041;-64
2021/06/20 03:33:23;;;;;;;2.35;1.00;;;27.30;49.20;;;;;;2347035;53;21403;-63
2021/06/20 03:35:50;;;;;;;4.22;1.10;;;27.20;49.20;;;;;;2352309;53;20978;-65
2021/06/20 03:38:16;;;;;;;5.93;0.93;;;27.20;49.10;;;;;;2348998;53;21403;-64
2021/06/20 03:40:42;;;;;;;4.53;1.10;;;27.10;49.00;;;;;;2349183;53;21596;-65
2021/06/20 03:43:09;;;;;;;4.47;1.48;;;27.10;49.10;;;;;;2352929;53;21468;-66
2021/06/20 03:45:40;;;;;;;3.42;0.80;;;27.00;49.10;;;;;;2588183;52;20966;-64
2021/06/20 03:48:06;;;;;;;5.43;1.17;;;27.00;49.10;;;;;;2349356;53;20937;-63
2021/06/20 03:50:32;;;;;;;2.72;1.08;;;27.00;49.10;;;;;;2346852;53;20973;-66
2021/06/20 03:52:59;;;;;;;2.60;0.80;;;26.90;49.70;;;;;;2350572;53;20966;-65
2021/06/20 03:55:25;;;;;;;3.05;0.80;;;26.90;49.10;;;;;;2348555;53;20910;-65
2021/06/20 03:57:51;;;;;;;2.53;1.12;;;26.90;49.00;;;;;;2351756;53;21813;-65
2021/06/20 04:00:18;;;;;;;2.20;0.82;;;26.90;49.00;;;;;;2347904;53;21452;-64
2021/06/20 04:02:44;;;;;;;3.65;1.05;;;26.80;49.00;;;;;;2348679;53;21352;-64
2021/06/20 04:05:11;;;;;;;3.15;1.00;;;26.80;49.00;;;;;;2348802;53;20950;-64
2021/06/20 04:07:38;;;;;;;3.47;0.93;;;26.80;48.90;;;;;;2349930;53;20958;-64
2021/06/20 04:10:04;;;;;;;2.75;0.68;;;26.80;48.90;;;;;;2344810;53;21022;-64
2021/06/20 04:12:31;;;;;;;2.47;0.82;;;26.80;48.90;;;;;;2588081;52;20917;-64
2021/06/20 04:14:57;;;;;;;1.23;0.50;;;26.70;48.90;;;;;;2345693;53;20946;-64
2021/06/20 04:17:26;;;;;;;4.35;0.80;;;26.70;48.80;;;;;;2348373;53;20969;-64
2021/06/20 04:19:52;;;;;;;1.95;0.62;;;26.70;48.70;;;;;;2349323;53;21018;-64
2021/06/20 04:22:19;;;;;;;3.17;0.70;;;26.70;48.70;;;;;;2349520;53;21767;-65
2021/06/20 04:24:45;;;;;;;2.30;0.80;;;26.70;48.60;;;;;;2347298;53;21439;-66
2021/06/20 04:27:13;;;;;;;1.62;0.60;;;26.70;48.60;;;;;;2346552;53;20996;-65
2021/06/20 04:29:39;;;;;;;2.45;0.70;;;26.70;48.50;;;;;;2345843;53;21006;-63
2021/06/20 04:32:06;;;;;;;2.87;0.90;;;26.70;48.40;;;;;;2346337;53;21089;-64
2021/06/20 04:34:33;;;;;;;2.47;0.70;;;26.70;48.40;;;;;;2348500;53;20937;-65
2021/06/20 04:36:59;;;;;;;2.75;0.85;;;26.70;48.30;;;;;;2350716;53;21036;-64
2021/06/20 04:39:27;;;;;;;1.75;0.60;;;26.70;48.30;;;;;;2347367;53;20997;-63
2021/06/20 04:41:53;;;;;;;1.62;0.50;;;26.70;48.30;;;;;;2350221;53;20989;-64
2021/06/20 04:47:04;;;;;;;2.50;0.75;;;26.70;48.30;;;;;;2346478;53;20942;-63
2021/06/20 04:49:31;;;;;;;4.65;1.02;;;26.70;48.20;;;;;;2347782;53;20946;-67
2021/06/20 04:51:57;;;;;;;3.25;0.80;;;26.70;48.10;;;;;;2346605;53;20978;-63
2021/06/20 04:54:24;;;;;;;1.67;0.77;;;26.70;48.10;;;;;;2347625;53;20914;-64
2021/06/20 04:56:50;;;;;;;2.50;0.70;;;26.60;48.10;;;;;;2535601;52;20925;-64
2021/06/20 04:59:16;;;;;;;1.58;0.47;;;26.70;48.10;;;;;;2355506;53;20966;-64
2021/06/20 05:01:42;;;;;;;1.70;0.70;;;26.60;48.00;;;;;;2589604;52;20984;-64
2021/06/20 05:04:10;;;;;;;2.40;0.60;;;26.60;48.00;;;;;;2351812;53;20973;-65
2021/06/20 05:06:37;;;;;;;2.75;0.77;;;26.70;48.00;;;;;;2344887;53;21017;-65
2021/06/20 05:09:04;;;;;;;2.17;0.70;;;26.60;47.80;;;;;;2346990;53;20978;-64
2021/06/20 05:11:30;;;;;;;1.70;0.60;;;26.70;47.80;;;;;;2352066;53;20938;-66
2021/06/20 05:13:57;;;;;;;1.77;0.62;;;26.70;47.80;;;;;;2348543;53;20971;-64
2021/06/20 05:16:23;;;;;;;1.55;0.60;;;26.70;47.90;;;;;;2345658;53;20969;-64
2021/06/20 05:18:49;;;;;;;2.22;0.50;;;26.70;47.90;;;;;;2349629;53;21462;-64
2021/06/20 05:21:16;;;;;;;1.67;0.52;;;26.70;48.00;;;;;;2346866;53;20906;-66
2021/06/20 05:23:42;;;;;;;1.75;0.70;;;26.70;47.90;;;;;;2347765;53;21006;-63
2021/06/20 05:26:08;;;;;;;1.02;0.50;;;26.70;47.90;;;;;;2351507;53;21833;-64
2021/06/20 05:28:35;;;;;;;2.00;0.82;;;26.70;47.90;;;;;;2588956;52;20938;-64
2021/06/20 05:31:01;;;;;;;2.45;0.68;;;26.70;47.80;;;;;;2345232;53;20902;-66
2021/06/20 05:33:27;;;;;;;3.37;0.90;;;26.70;47.70;;;;;;2318249;53;1689190;-64
2021/06/20 05:35:53;;;;;;;1.48;0.50;;;26.80;47.60;;;;;;2346019;53;21411;-64
2021/06/20 05:38:20;;;;;;;1.58;0.60;;;26.70;47.50;;;;;;2491268;53;20953;-62
2021/06/20 05:40:47;;;;;;;1.80;0.70;;;26.70;47.50;;;;;;2348783;53;21045;-66
2021/06/20 05:43:15;;;;;;;1.60;0.60;;;26.80;47.50;;;;;;2350742;53;21015;-64
2021/06/20 05:45:41;;;;;;;1.40;0.60;;;26.80;47.60;;;;;;2347397;53;21049;-67
2021/06/20 05:48:08;;;;;;;2.42;0.60;;;26.80;47.60;;;;;;2348099;53;20986;-63
2021/06/20 05:50:37;;;;;;;2.12;0.60;;;26.80;47.60;;;;;;2345978;53;20946;-64
2021/06/20 05:53:04;;;;;;;1.62;0.60;;;26.80;47.60;;;;;;2348213;53;20934;-64
2021/06/20 05:55:30;;;;;;;2.87;0.70;;;26.80;47.60;;;;;;2351494;53;20970;-66
2021/06/20 05:57:57;;;;;;;1.60;0.60;;;26.80;47.40;;;;;;2349656;53;21014;-64
2021/06/20 06:00:24;;;;;;;1.73;0.68;;;26.80;47.40;;;;;;2348731;53;20946;-64
2021/06/20 06:02:50;;;;;;;1.70;0.60;;;26.90;47.50;;;;;;2587269;52;20934;-64
2021/06/20 06:05:16;;;;;;;1.77;0.60;;;26.90;47.40;;;;;;2346446;53;21470;-64
2021/06/20 06:07:44;;;;;;;2.55;0.65;;;26.90;47.30;;;;;;2347870;53;21577;-64
2021/06/20 06:10:25;;;;;;;2.17;0.60;;;26.90;47.40;;;;;;2349156;53;20980;-64
2021/06/20 06:12:54;;;;;;;1.20;0.40;;;26.90;47.40;;;;;;2587349;52;20951;-64
2021/06/20 06:15:21;;;;;;;1.83;0.70;;;26.90;47.40;;;;;;2346198;53;21739;-64
2021/06/20 06:17:49;;;;;;;3.08;0.85;;;26.90;47.50;;;;;;2352081;53;20993;-65
2021/06/20 06:20:20;;;;;;;0.95;0.43;;;26.90;47.40;;;;;;2346581;53;21779;-64
2021/06/20 06:22:46;;;;;;;2.03;0.50;;;27.00;47.50;;;;;;2353131;53;20937;-64
2021/06/20 06:25:12;;;;;;;1.67;0.52;;;27.00;47.70;;;;;;2347040;53;20986;-64
2021/06/20 06:27:40;;;;;;;1.17;0.43;;;27.00;47.70;;;;;;2344964;53;20958;-64
2021/06/20 06:30:09;;;;;;;1.12;0.50;;;27.00;47.60;;;;;;2587109;52;21764;-66
2021/06/20 06:32:37;;;;;;;1.58;0.60;;;27.00;47.50;;;;;;2345732;53;20997;-66
2021/06/20 06:35:03;;;;;;;1.00;0.40;;;27.10;47.50;;;;;;2346142;53;20993;-66
2021/06/20 06:37:29;;;;;;;2.83;0.55;;;27.10;47.60;;;;;;2356973;53;20930;-65
2021/06/20 06:39:57;;;;;;;1.20;0.47;;;27.10;47.50;;;;;;2348564;53;21470;-64
2021/06/20 06:42:26;;;;;;;1.83;0.50;;;27.20;47.70;;;;;;2345596;53;21019;-64
2021/06/20 06:44:56;;;;;;;1.08;0.40;;;27.20;47.80;;;;;;2587464;52;20993;-64
2021/06/20 06:47:34;;;;;;;2.97;0.60;;;27.30;47.80;;;;;;2351837;53;21006;-65
2021/06/20 06:50:02;;;;;;;1.75;0.50;;;27.30;47.80;;;;;;2349496;53;21022;-65
2021/06/20 06:52:29;;;;;;;2.08;0.55;;;27.30;47.70;;;;;;2346648;53;21445;-64
2021/06/20 06:54:55;;;;;;;1.23;0.50;;;27.50;47.70;;;;;;2348244;53;20970;-64
2021/06/20 06:57:22;;;;;;;2.50;0.60;;;27.50;47.60;;;;;;2347231;53;20934;-64
2021/06/20 06:59:52;;;;;;;1.30;0.50;;;27.50;47.70;;;;;;2350045;53;20994;-64
2021/06/20 07:02:19;;;;;;;2.20;0.62;;;27.50;47.50;;;;;;2352384;53;21013;-64
2021/06/20 07:04:46;;;;;;;1.73;0.62;;;27.60;47.30;;;;;;2346388;53;20942;-64
2021/06/20 07:07:14;;;;;;;1.02;0.50;;;27.70;47.10;;;;;;2349442;53;20983;-64
2021/06/20 07:09:41;;;;;;;1.35;0.40;;;27.70;47.20;;;;;;2347870;53;20962;-69
2021/06/20 07:12:07;;;;;;;4.90;0.60;;;27.70;47.20;;;;;;2545967;52;20982;-65
2021/06/20 07:14:35;;;;;;;4.82;0.70;;;27.80;47.40;;;;;;2346465;53;21002;-65
2021/06/20 07:17:04;;;;;;;1.87;0.60;;;27.80;47.10;;;;;;2349058;53;20967;-65
2021/06/20 07:19:31;;;;;;;1.35;0.57;;;27.80;46.80;;;;;;2349983;53;20986;-69
2021/06/20 07:21:57;;;;;;;1.75;0.60;;;27.80;46.80;;;;;;2587457;52;21444;-68
2021/06/20 07:24:23;;;;;;;2.70;0.62;;;27.90;46.80;;;;;;2349419;53;21034;-64
2021/06/20 07:26:52;;;;;;;1.35;0.60;;;27.90;46.70;;;;;;2347189;53;21349;-66
2021/06/20 07:29:19;;;;;;;2.62;1.00;;;27.90;46.70;;;;;;2346861;53;21007;-69
2021/06/20 07:31:45;;;;;;;1.33;0.60;;;28.00;46.50;;;;;;2347638;53;21069;-64
2021/06/20 07:34:11;;;;;;;2.05;0.60;;;28.00;46.50;;;;;;2374518;52;21454;-64
2021/06/20 07:36:40;;;;;;;1.20;0.47;;;28.00;46.20;;;;;;2344766;53;20950;-63
2021/06/20 07:39:07;;;;;;;1.12;0.40;;;28.00;46.20;;;;;;2404661;53;20974;-64
2021/06/20 07:41:34;;;;;;;1.17;0.40;;;28.00;46.30;;;;;;2413985;52;20942;-68
2021/06/20 07:44:00;;;;;;;1.52;0.50;;;28.00;46.20;;;;;;2346859;53;20938;-66
2021/06/20 07:46:27;;;;;;;1.48;0.52;;;28.10;46.20;;;;;;2350183;53;20934;-67
2021/06/20 07:48:53;;;;;;;2.00;0.73;;;28.10;46.10;;;;;;2352717;53;21849;-65
2021/06/20 07:51:20;;;;;;;1.30;0.55;;;28.10;46.00;;;;;;2346200;53;20954;-66
2021/06/20 07:53:47;;;;;;;3.05;0.50;;;28.10;45.90;;;;;;2348656;53;20965;-65
2021/06/20 07:56:13;;;;;;;1.12;0.50;;;28.10;46.00;;;;;;2347565;53;20986;-65
2021/06/20 07:58:40;;;;;;;2.40;0.80;;;28.00;46.00;;;;;;2351920;53;21334;-64
2021/06/20 08:01:06;;;;;;;1.55;0.50;;;28.00;46.00;;;;;;2435948;52;20950;-64
2021/06/20 08:03:34;;;;;;;2.08;0.68;;;28.00;45.90;;;;;;2587772;52;20930;-64
2021/06/20 08:06:00;;;;;;;1.50;0.57;;;28.00;46.00;;;;;;2349377;53;20923;-65
2021/06/20 08:08:26;;;;;;;2.33;0.80;;;28.00;46.00;;;;;;2348107;53;20971;-64
2021/06/20 08:10:53;;;;;;;2.42;1.10;;;28.00;46.00;;;;;;2590627;52;20912;-67
2021/06/20 08:13:20;;;;;;;1.05;0.50;;;28.00;45.90;;;;;;2351671;53;21010;-68
2021/06/20 08:15:46;;;;;;;1.87;0.80;;;28.00;46.00;;;;;;2345498;53;21544;-64
2021/06/20 08:18:13;;;;;;;2.20;0.80;;;28.00;45.90;;;;;;2346306;53;21022;-65
2021/06/20 08:20:41;;;;;;;1.67;0.70;;;28.00;45.90;;;;;;2333705;53;21013;-66
2021/06/20 08:23:07;;;;;;;2.22;0.70;;;28.00;45.80;;;;;;2349256;53;20958;-64
2021/06/20 08:25:33;;;;;;;1.83;0.65;;;28.00;45.90;;;;;;2345941;53;20918;-64
2021/06/20 08:28:00;;;;;;;2.25;0.90;;;28.00;46.00;;;;;;2455597;52;20990;-68
2021/06/20 08:30:27;;;;;;;3.90;1.00;;;28.00;45.90;;;;;;2350680;53;20990;-64
2021/06/20 08:32:53;;;;;;;1.42;0.52;;;28.00;46.10;;;;;;2347603;53;20977;-65
2021/06/20 08:35:19;;;;;;;1.58;0.62;;;28.00;46.20;;;;;;2347173;53;21014;-64
2021/06/20 08:37:46;;;;;;;1.33;0.50;;;28.00;46.30;;;;;;2591610;52;20904;-64
2021/06/20 08:40:13;;;;;;;1.27;0.50;;;28.00;46.30;;;;;;2349103;53;22026;-64
2021/06/20 08:42:40;;;;;;;1.35;0.65;;;28.10;46.50;;;;;;2349718;53;20946;-65
2021/06/20 08:45:06;;;;;;;2.65;0.50;;;28.20;46.60;;;;;;2348434;53;21010;-65
2021/06/20 08:47:36;;;;;;;2.25;0.52;;;28.20;46.80;;;;;;2345205;53;20957;-65
2021/06/20 08:50:03;;;;;;;1.33;0.50;;;28.30;47.00;;;;;;2350581;53;20962;-65
2021/06/20 08:52:29;;;;;;;1.55;0.60;;;28.30;46.90;;;;;;2587821;52;20986;-63
2021/06/20 08:55:01;;;;;;;1.48;0.60;;;28.40;46.80;;;;;;2347665;53;20986;-64
2021/06/20 08:57:34;;;;;;;;;;;28.50;46.80;;;;;;2354726;53;20966;-66
2021/06/20 09:00:00;;;;;;;1.80;0.57;;;28.60;46.80;;;;;;2352238;53;20133;-64
2021/06/20 09:02:30;;;;;;;2.47;0.68;;;28.60;46.60;;;;;;2346931;53;20971;-65
2021/06/20 09:05:07;;;;;;;2.00;0.68;;;28.70;46.60;;;;;;2587144;52;20974;-64
2021/06/20 09:07:37;;;;;;;2.67;0.50;;;28.70;46.40;;;;;;2329480;53;21782;-65
2021/06/20 09:10:17;;;;;;;2.10;0.68;;;28.80;46.30;;;;;;2585370;52;20953;-64
2021/06/20 09:12:54;;;;;;;1.85;0.60;;;28.80;46.50;;;;;;2347793;53;20975;-64
2021/06/20 09:15:25;;;;;;;2.30;0.85;;;28.80;46.50;;;;;;2351636;53;20957;-63
2021/06/20 09:17:56;;;;;;;1.60;0.75;;;28.90;46.50;;;;;;2348000;53;20967;-63
2021/06/20 09:20:44;;;;;;;1.90;0.75;;;29.00;46.50;;;;;;2349104;53;21022;-63
2021/06/20 09:23:13;;;;;;;1.48;0.50;;;29.00;46.30;;;;;;2348451;53;20962;-63
2021/06/20 09:25:40;;;;;;;2.50;0.77;;;29.10;46.20;;;;;;2587215;52;21391;-64
2021/06/20 09:28:08;;;;;;;1.10;0.50;;;29.10;46.10;;;;;;2348534;53;20970;-64
2021/06/20 09:30:42;;;;;;;1.70;0.73;;;29.20;46.00;;;;;;2352900;53;21050;-64
2021/06/20 09:33:09;;;;;;;3.22;1.25;;;29.20;45.90;;;;;;2350986;53;20910;-66
2021/06/20 09:35:52;;;;;;;2.08;0.70;;;29.30;46.00;;;;;;2347222;53;21069;-64
2021/06/20 09:38:23;;;;;;;2.37;0.50;;;29.40;45.60;;;;;;2560044;52;20918;-64
2021/06/20 09:40:52;;;;;;;4.47;0.80;;;29.50;45.80;;;;;;2348260;53;20982;-64
2021/06/20 09:43:21;;;;;;;2.87;0.70;;;29.50;46.00;;;;;;2348097;53;20902;-65
2021/06/20 09:45:48;;;;;;;0.90;0.30;;;29.60;45.90;;;;;;2348417;53;20946;-64
2021/06/20 09:48:21;;;;;;;1.60;0.60;;;29.70;46.10;;;;;;2350591;53;21058;-63
2021/06/20 09:50:48;;;;;;;3.20;0.70;;;29.70;45.90;;;;;;2346554;53;21451;-62
2021/06/20 09:53:14;;;;;;;2.30;0.88;;;29.80;45.80;;;;;;2350882;53;21811;-66
2021/06/20 09:55:43;;;;;;;5.15;1.20;;;29.90;45.40;;;;;;2346936;53;20962;-64
2021/06/20 09:58:09;;;;;;;2.10;0.73;;;29.90;45.10;;;;;;2344997;53;20954;-64
2021/06/20 10:00:39;;;;;;;4.07;0.70;;;30.00;44.90;;;;;;2352939;53;21025;-64
2021/06/20 10:03:06;;;;;;;1.30;0.50;;;30.00;45.00;;;;;;2587263;52;21010;-65
2021/06/20 10:05:32;;;;;;;3.10;0.93;;;30.10;45.00;;;;;;2346368;53;21812;-66
2021/06/20 10:08:00;;;;;;;3.40;0.70;;;30.10;44.80;;;;;;2552700;52;21755;-65
2021/06/20 10:10:27;;;;;;;2.17;0.70;;;30.20;44.50;;;;;;2343622;53;20961;-64
2021/06/20 10:12:53;;;;;;;2.37;0.60;;;30.20;44.40;;;;;;2344860;53;21000;-64
2021/06/20 10:15:19;;;;;;;2.15;0.70;;;30.20;44.50;;;;;;2350220;53;20922;-66
2021/06/20 10:18:00;;;;;;;2.28;0.60;;;30.20;44.50;;;;;;2346539;53;21895;-65
2021/06/20 10:20:31;;;;;;;1.80;0.68;;;30.30;44.50;;;;;;2357572;53;20946;-62
2021/06/20 10:22:58;;;;;;;3.33;0.70;;;30.30;44.50;;;;;;2350626;53;20990;-64
2021/06/20 10:25:37;;;;;;;5.10;1.00;;;30.40;44.50;;;;;;2347123;53;21082;-65
2021/06/20 10:28:08;;;;;;;2.67;0.90;;;30.40;44.40;;;;;;2346229;53;21041;-66
2021/06/20 10:30:35;;;;;;;2.65;0.80;;;30.50;44.30;;;;;;2349059;53;20919;-64
2021/06/20 10:33:11;;;;;;;2.92;0.80;;;30.50;44.30;;;;;;2350571;53;21965;-65
2021/06/20 10:35:40;;;;;;;2.03;0.88;;;30.50;43.90;;;;;;2521286;52;20991;-65
2021/06/20 10:38:07;;;;;;;3.83;0.80;;;30.50;44.20;;;;;;2348363;53;20994;-67
2021/06/20 10:40:38;;;;;;;4.50;1.00;;;30.60;44.40;;;;;;2346626;53;20990;-64
2021/06/20 10:43:20;;;;;;;3.87;0.97;;;30.60;44.30;;;;;;2347142;53;21037;-64
2021/06/20 10:45:47;;;;;;;3.78;0.93;;;30.70;43.90;;;;;;2328699;54;21380;-65
2021/06/20 10:48:28;;;;;;;4.28;0.80;;;30.80;44.10;;;;;;2346088;53;20969;-66
2021/06/20 10:50:56;;;;;;;2.45;0.82;;;30.90;43.70;;;;;;2346747;53;20941;-64
2021/06/20 10:53:23;;;;;;;4.82;1.08;;;30.90;44.00;;;;;;2347574;53;20946;-67
2021/06/20 10:55:52;;;;;;;3.62;1.10;;;31.00;44.00;;;;;;2345872;53;20954;-64
2021/06/20 10:58:25;;;;;;;3.42;0.90;;;31.00;44.00;;;;;;2351021;53;20960;-66
2021/06/20 11:01:14;;;;;;;3.17;0.70;;;31.10;43.90;;;;;;2347837;53;21013;-64
2021/06/20 11:03:41;;;;;;;5.57;1.23;;;31.20;43.90;;;;;;2348993;53;20950;-64
2021/06/20 11:06:13;;;;;;;6.62;1.20;;;31.30;43.70;;;;;;2345634;53;20962;-65
2021/06/20 11:08:58;;;;;;;7.85;1.37;;;31.40;43.50;;;;;;2349620;53;20998;-65
2021/06/20 11:11:32;;;;;;;8.20;1.52;;;31.50;43.40;;;;;;2348018;53;21804;-64
2021/06/20 11:14:09;;;;;;;9.05;1.73;;;31.50;43.30;;;;;;2587384;52;20914;-65
2021/06/20 11:16:43;;;;;;;9.57;2.00;;;31.60;42.60;;;;;;2346269;53;21013;-65
2021/06/20 11:19:28;;;;;;;6.78;1.80;;;31.60;42.50;;;;;;2350352;53;20931;-65
2021/06/20 11:22:06;;;;;;;7.22;1.70;;;31.70;42.40;;;;;;2345584;53;21881;-65
2021/06/20 11:24:46;;;;;;;7.20;1.50;;;31.70;42.70;;;;;;2345590;53;20982;-66
2021/06/20 11:27:13;;;;;;;8.45;2.05;;;31.80;42.70;;;;;;2354051;53;20938;-66
2021/06/20 11:30:02;;;;;;;9.65;2.05;;;31.80;42.80;;;;;;2348800;53;20938;-65
2021/06/20 11:32:38;;;;;;;5.72;1.42;;;31.90;42.70;;;;;;2328353;53;21814;-65
2021/06/20 11:35:17;;;;;;;7.80;2.05;;;32.00;42.60;;;;;;2346796;53;20957;-65
2021/06/20 11:37:47;;;;;;;9.75;1.87;;;32.00;42.30;;;;;;2347110;53;20974;-64
2021/06/20 11:40:20;;;;;;;10.20;1.70;;;32.10;42.40;;;;;;2348255;53;20942;-64
2021/06/20 11:42:54;;;;;;;8.77;2.47;;;32.10;42.10;;;;;;2346564;53;21692;-65
2021/06/20 11:45:26;;;;;;;11.63;3.03;;;32.20;42.10;;;;;;2348359;53;20927;-65
2021/06/20 11:47:52;;;;;;;;;;;32.20;42.20;;;;;;2591696;52;21001;-64
2021/06/20 11:50:24;;;;;;;12.13;2.70;;;32.30;42.20;;;;;;2345764;53;20116;-65
2021/06/20 11:52:56;;;;;;;11.48;2.50;;;32.30;41.90;;;;;;2352931;53;21049;-68
2021/06/20 11:55:24;;;;;;;10.45;2.42;;;32.40;41.90;;;;;;2347008;53;20985;-65
2021/06/20 11:57:51;;;;;;;13.75;2.35;;;32.40;41.80;;;;;;2540969;52;20950;-65
2021/06/20 12:00:19;;;;;;;14.50;3.22;;;32.50;41.90;;;;;;2348675;53;20954;-65
2021/06/20 12:02:57;;;;;;;9.52;2.65;;;32.50;41.50;;;;;;2347934;53;21413;-64
2021/06/20 12:05:23;;;;;;;8.35;2.10;;;32.60;41.90;;;;;;2350684;53;21018;-68
2021/06/20 12:07:52;;;;;;;12.20;2.20;;;32.60;41.80;;;;;;2345911;53;21085;-65
2021/06/20 12:10:19;;;;;;;9.70;2.53;;;32.70;41.80;;;;;;2561578;52;21028;-66
2021/06/20 12:13:05;;;;;;;7.25;2.28;;;32.80;41.30;;;;;;2349106;53;21470;-66
2021/06/20 12:15:32;;;;;;;8.20;2.55;;;32.80;41.00;;;;;;2346372;53;20946;-65
2021/06/20 12:18:03;;;;;;;9.20;2.47;;;32.80;40.90;;;;;;2349778;53;21010;-65
2021/06/20 12:20:30;;;;;;;9.73;2.10;;;32.90;40.90;;;;;;2348103;53;21010;-65
2021/06/20 12:22:57;;;;;;;8.55;2.03;;;32.90;40.70;;;;;;2348590;53;20954;-65
2021/06/20 12:25:25;;;;;;;9.23;1.80;;;32.90;40.40;;;;;;2347125;53;20946;-65
2021/06/20 12:27:52;;;;;;;8.10;1.90;;;32.90;40.70;;;;;;2346338;53;20945;-64
2021/06/20 12:30:24;;;;;;;9.43;2.55;;;32.90;40.90;;;;;;2348964;53;20970;-68
2021/06/20 12:32:53;;;;;;;10.82;3.28;;;33.00;40.60;;;;;;2347160;53;21002;-70
2021/06/20 12:35:31;;;;;;;13.98;2.50;;;33.00;40.60;;;;;;2348897;53;20982;-64
2021/06/20 12:37:58;;;;;;;9.98;2.95;;;33.00;40.70;;;;;;2346933;53;21777;-69
2021/06/20 12:40:28;;;;;;;12.85;2.55;;;33.10;40.80;;;;;;2348067;53;20959;-68
2021/06/20 12:42:57;;;;;;;12.23;2.83;;;33.10;40.80;;;;;;2462003;53;21018;-70
2021/06/20 12:45:31;;;;;;;10.52;2.45;;;33.20;41.00;;;;;;2340912;53;20981;-68
2021/06/20 12:47:58;;;;;;;7.72;1.87;;;33.30;40.90;;;;;;2342724;53;21070;-65
2021/06/20 12:50:29;;;;;;;11.38;2.47;;;33.40;40.90;;;;;;2589826;52;21550;-66
2021/06/20 12:52:55;;;;;;;9.90;2.87;;;33.50;40.80;;;;;;2345462;53;21363;-65
2021/06/20 12:55:22;;;;;;;11.65;2.35;;;33.50;40.60;;;;;;2346998;53;21414;-66